createdAt,value
2018-07-20T00:02:00.245Z,68.10
2018-07-20T00:04:29.498Z,67.40
2018-07-20T00:06:58.516Z,65.80
2018-07-20T00:09:27.478Z,66.20
2018-07-20T00:11:56.698Z,65.80
2018-07-20T00:14:25.758Z,66.00
2018-07-20T00:16:54.875Z,66.90
2018-07-20T00:19:24.109Z,67.80
2018-07-20T00:21:53.270Z,68.60
2018-07-20T00:24:22.521Z,66.80
2018-07-20T00:26:51.618Z,68.40
2018-07-20T00:29:20.654Z,68.20
2018-07-20T00:31:49.874Z,68.40
2018-07-20T00:34:19.209Z,69.40
2018-07-20T00:36:48.610Z,69.10
2018-07-20T00:39:17.749Z,68.40
2018-07-20T00:41:46.919Z,68.10
2018-07-20T00:44:16.040Z,68.10
2018-07-20T00:46:45.430Z,68.20
2018-07-20T00:49:14.535Z,68.30
2018-07-20T00:51:43.760Z,68.50
2018-07-20T00:54:13.360Z,68.50
2018-07-20T00:56:42.542Z,68.80
2018-07-20T00:59:11.838Z,68.80
2018-07-20T01:01:40.701Z,68.90
2018-07-20T01:04:09.810Z,68.60
2018-07-20T01:06:38.689Z,70.30
2018-07-20T01:09:09.471Z,70.80
2018-07-20T01:11:38.391Z,71.10
2018-07-20T01:14:07.433Z,70.90
2018-07-20T01:16:36.667Z,71.30
2018-07-20T01:19:05.824Z,71.70
2018-07-20T01:21:34.676Z,71.40
2018-07-20T01:24:03.739Z,71.30
2018-07-20T01:26:32.654Z,71.70
2018-07-20T01:29:01.594Z,71.70
2018-07-20T01:31:30.680Z,71.70
2018-07-20T01:33:59.734Z,73.10
2018-07-20T01:36:28.564Z,73.10
2018-07-20T01:38:57.453Z,72.80
2018-07-20T01:41:26.428Z,73.10
2018-07-20T01:43:55.551Z,73.50
2018-07-20T01:46:24.559Z,73.60
2018-07-20T01:48:53.466Z,73.60
2018-07-20T01:51:22.333Z,74.10
2018-07-20T01:53:51.234Z,74.30
2018-07-20T01:56:20.149Z,74.60
2018-07-20T01:58:49.048Z,74.80
2018-07-20T02:01:18.923Z,74.60
2018-07-20T02:03:47.834Z,74.30
2018-07-20T02:06:16.733Z,74.20
2018-07-20T02:08:45.672Z,74.40
2018-07-20T02:11:14.609Z,74.10
2018-07-20T02:13:43.663Z,74.10
2018-07-20T02:16:12.552Z,74.30
2018-07-20T02:18:41.467Z,74.60
2018-07-20T02:21:10.504Z,74.90
2018-07-20T02:23:39.618Z,74.90
2018-07-20T02:26:08.503Z,74.90
2018-07-20T02:28:37.599Z,75.60
2018-07-20T02:31:06.923Z,76.40
2018-07-20T02:33:35.993Z,76.00
2018-07-20T02:38:33.374Z,75.60
2018-07-20T02:41:02.244Z,75.60
2018-07-20T02:43:31.365Z,75.70
2018-07-20T02:46:00.457Z,75.60
2018-07-20T02:48:29.527Z,75.80
2018-07-20T02:50:58.423Z,76.10
2018-07-20T02:53:27.501Z,76.20
2018-07-20T02:55:56.608Z,76.70
2018-07-20T02:58:25.683Z,77.10
2018-07-20T03:00:54.821Z,77.30
2018-07-20T03:03:23.687Z,77.40
2018-07-20T03:05:52.792Z,77.30
2018-07-20T03:08:21.834Z,77.70
2018-07-20T03:10:50.768Z,78.00
2018-07-20T03:13:19.646Z,78.40
2018-07-20T03:15:54.776Z,78.20
2018-07-20T03:18:23.672Z,77.80
2018-07-20T03:20:52.811Z,77.80
2018-07-20T03:23:21.643Z,78.40
2018-07-20T03:25:50.523Z,78.50
2018-07-20T03:28:19.524Z,78.80
2018-07-20T03:30:48.394Z,78.20
2018-07-20T03:33:17.338Z,78.30
2018-07-20T03:35:46.500Z,78.60
2018-07-20T03:38:15.409Z,79.00
2018-07-20T03:40:45.219Z,78.70
2018-07-20T03:43:14.320Z,78.80
2018-07-20T03:45:43.189Z,78.90
2018-07-20T03:48:12.283Z,79.30
2018-07-20T03:50:41.168Z,79.40
2018-07-20T03:53:10.042Z,79.40
2018-07-20T03:55:38.984Z,79.50
2018-07-20T03:58:08.049Z,79.90
2018-07-20T04:00:36.938Z,80.30
2018-07-20T04:03:05.851Z,80.50
2018-07-20T04:05:34.768Z,80.70
2018-07-20T04:08:03.632Z,81.20
2018-07-20T04:10:32.532Z,80.90
2018-07-20T04:13:01.368Z,81.00
2018-07-20T04:15:30.239Z,81.30
2018-07-20T04:17:59.181Z,81.40
2018-07-20T04:20:28.074Z,80.70
2018-07-20T04:22:56.945Z,80.80
2018-07-20T04:25:25.897Z,80.70
2018-07-20T04:27:54.890Z,80.50
2018-07-20T04:30:23.957Z,80.50
2018-07-20T04:32:52.970Z,80.70
2018-07-20T04:35:21.972Z,79.90
2018-07-20T04:37:50.919Z,79.90
2018-07-20T04:40:20.239Z,80.20
2018-07-20T04:42:49.233Z,80.10
2018-07-20T04:45:18.413Z,80.30
2018-07-20T04:47:47.602Z,79.30
2018-07-20T04:50:16.807Z,79.90
2018-07-20T04:52:48.984Z,79.30
2018-07-20T04:55:18.005Z,79.40
2018-07-20T04:57:47.128Z,79.60
2018-07-20T05:00:16.231Z,79.30
2018-07-20T05:02:45.449Z,79.20
2018-07-20T05:05:14.675Z,79.50
2018-07-20T05:07:43.690Z,79.80
2018-07-20T05:10:12.821Z,79.40
2018-07-20T05:12:42.130Z,79.50
2018-07-20T05:15:11.710Z,78.90
2018-07-20T05:17:40.772Z,78.70
2018-07-20T05:20:09.891Z,78.50
2018-07-20T05:22:39.094Z,78.70
2018-07-20T05:25:08.222Z,78.40
2018-07-20T05:27:37.512Z,78.40
2018-07-20T05:30:06.867Z,78.70
2018-07-20T05:32:35.967Z,78.80
2018-07-20T05:35:05.188Z,78.80
2018-07-20T05:37:34.268Z,78.40
2018-07-20T05:40:03.365Z,78.80
2018-07-20T05:42:32.491Z,78.70
2018-07-20T05:45:01.878Z,79.00
2018-07-20T05:47:31.156Z,78.80
2018-07-20T05:50:00.389Z,78.70
2018-07-20T05:52:29.474Z,78.90
2018-07-20T05:54:58.480Z,78.60
2018-07-20T05:57:27.694Z,78.20
2018-07-20T05:59:57.000Z,77.90
2018-07-20T06:02:26.111Z,77.60
2018-07-20T06:07:23.976Z,77.90
2018-07-20T06:09:53.152Z,77.20
2018-07-20T06:12:22.330Z,77.10
2018-07-20T06:14:51.392Z,77.10
2018-07-20T06:17:20.663Z,76.70
2018-07-20T06:19:50.514Z,76.80
2018-07-20T06:22:19.751Z,76.50
2018-07-20T06:24:48.850Z,76.90
2018-07-20T06:27:20.744Z,77.30
2018-07-20T06:32:18.688Z,76.30
2018-07-20T06:34:48.035Z,76.70
2018-07-20T06:37:17.372Z,77.00
2018-07-20T06:39:46.669Z,76.70
2018-07-20T06:42:16.590Z,76.10
2018-07-20T06:44:45.712Z,76.80
2018-07-20T06:47:15.859Z,75.20
2018-07-20T06:49:45.035Z,74.70
2018-07-20T06:52:14.241Z,74.10
2018-07-20T06:54:43.410Z,73.40
2018-07-20T06:57:12.583Z,73.60
2018-07-20T06:59:41.975Z,73.00
2018-07-20T07:02:11.653Z,72.80
2018-07-20T07:04:40.794Z,72.30
2018-07-20T07:07:10.216Z,72.00
2018-07-20T07:09:39.421Z,72.10
2018-07-20T07:12:08.920Z,72.50
2018-07-20T07:14:38.253Z,71.30
2018-07-20T07:17:07.780Z,71.70
2018-07-20T07:19:37.014Z,71.10
2018-07-20T07:22:07.608Z,69.40
2018-07-20T07:24:37.001Z,69.00
2018-07-20T07:27:06.157Z,68.80
2018-07-20T07:29:35.411Z,68.60
2018-07-20T07:32:04.605Z,68.00
2018-07-20T07:34:33.723Z,67.90
2018-07-20T07:37:03.189Z,68.00
2018-07-20T07:39:32.343Z,67.60
2018-07-20T07:42:01.539Z,68.00
2018-07-20T07:44:30.667Z,67.40
2018-07-20T07:49:29.608Z,66.10
2018-07-20T07:51:59.771Z,66.00
2018-07-20T07:54:28.889Z,66.30
2018-07-20T07:56:58.526Z,67.30
2018-07-20T07:59:27.687Z,67.90
2018-07-20T08:01:57.531Z,67.00
2018-07-20T08:04:26.658Z,66.90
2018-07-20T08:06:56.041Z,67.40
2018-07-20T08:09:25.455Z,66.40
2018-07-20T08:11:54.745Z,65.90
2018-07-20T08:14:23.829Z,65.40
2018-07-20T08:16:53.166Z,65.20
2018-07-20T08:19:22.629Z,65.00
2018-07-20T08:21:52.495Z,64.90
2018-07-20T08:24:21.997Z,64.80
2018-07-20T08:26:51.201Z,64.80
2018-07-20T08:29:20.619Z,64.90
2018-07-20T08:31:49.742Z,64.60
2018-07-20T08:34:19.338Z,64.00
2018-07-20T08:36:49.509Z,63.70
2018-07-20T08:39:18.996Z,63.30
2018-07-20T08:41:48.416Z,63.10
2018-07-20T08:44:17.717Z,62.40
2018-07-20T08:46:47.065Z,61.70
2018-07-20T08:49:16.179Z,61.60
2018-07-20T08:51:45.512Z,61.10
2018-07-20T08:54:14.913Z,60.30
2018-07-20T08:56:44.197Z,59.80
2018-07-20T08:59:13.555Z,59.70
2018-07-20T09:01:43.002Z,59.20
2018-07-20T09:04:12.722Z,59.00
2018-07-20T09:06:41.944Z,58.70
2018-07-20T09:09:11.402Z,58.70
2018-07-20T09:11:40.535Z,58.40
2018-07-20T09:14:09.519Z,58.40
2018-07-20T09:16:38.806Z,57.50
2018-07-20T09:19:08.075Z,57.80
2018-07-20T09:21:37.152Z,57.60
2018-07-20T09:24:06.386Z,57.70
2018-07-20T09:26:35.555Z,57.20
2018-07-20T09:29:04.543Z,57.20
2018-07-20T09:31:34.019Z,56.50
2018-07-20T09:34:03.616Z,56.00
2018-07-20T09:36:32.931Z,55.70
2018-07-20T09:39:02.345Z,55.80
2018-07-20T09:41:31.441Z,55.90
2018-07-20T09:44:00.673Z,55.40
2018-07-20T09:46:30.154Z,55.30
2018-07-20T09:48:59.700Z,54.80
2018-07-20T09:51:28.810Z,54.40
2018-07-20T09:53:58.424Z,54.00
2018-07-20T09:56:27.824Z,53.40
2018-07-20T09:58:57.386Z,52.80
2018-07-20T10:01:26.892Z,52.90
2018-07-20T10:03:56.288Z,52.50
2018-07-20T10:06:25.714Z,52.30
2018-07-20T10:08:55.202Z,51.60
2018-07-20T10:11:24.831Z,51.40
2018-07-20T10:13:54.315Z,50.70
2018-07-20T10:16:23.658Z,50.50
2018-07-20T10:18:53.308Z,49.90
2018-07-20T10:21:22.533Z,49.80
2018-07-20T10:23:51.985Z,49.00
2018-07-20T10:26:21.209Z,48.10
2018-07-20T10:28:50.921Z,47.80
2018-07-20T10:31:20.259Z,47.00
2018-07-20T10:33:49.530Z,46.80
2018-07-20T10:36:19.206Z,45.60
2018-07-20T10:38:48.451Z,45.20
2018-07-20T10:41:17.612Z,44.60
2018-07-20T10:43:47.214Z,43.50
2018-07-20T10:46:16.320Z,43.40
2018-07-20T10:48:46.865Z,43.10
2018-07-20T10:51:16.182Z,42.90
2018-07-20T10:53:45.643Z,43.40
2018-07-20T10:56:15.899Z,42.50
2018-07-20T10:58:45.442Z,41.70
2018-07-20T11:01:14.818Z,41.10
2018-07-20T11:03:44.361Z,40.90
2018-07-20T11:06:13.608Z,41.00
2018-07-20T11:08:42.987Z,41.20
2018-07-20T11:11:12.227Z,40.50
2018-07-20T11:13:42.044Z,39.90
2018-07-20T11:16:11.428Z,38.80
2018-07-20T11:18:40.572Z,38.80
2018-07-20T11:21:09.850Z,38.90
2018-07-20T11:23:39.248Z,38.90
2018-07-20T11:26:08.800Z,38.50
2018-07-20T11:28:38.351Z,38.50
2018-07-20T11:31:07.756Z,38.70
2018-07-20T11:33:37.283Z,37.20
2018-07-20T11:36:06.853Z,36.40
2018-07-20T11:38:36.454Z,36.80
2018-07-20T11:41:05.932Z,36.40
2018-07-20T11:43:35.499Z,36.00
2018-07-20T11:46:05.297Z,35.70
2018-07-20T11:48:34.845Z,35.20
2018-07-20T11:51:04.330Z,35.20
2018-07-20T11:53:33.561Z,35.10
2018-07-20T11:56:03.049Z,34.80
2018-07-20T11:58:32.491Z,34.00
2018-07-20T12:01:01.801Z,34.60
2018-07-20T12:03:31.186Z,33.30
2018-07-20T12:06:00.633Z,33.50
2018-07-20T12:08:30.328Z,33.70
2018-07-20T12:11:00.046Z,34.20
2018-07-20T12:13:29.534Z,34.90
2018-07-20T12:15:59.658Z,35.80
2018-07-20T12:18:29.326Z,35.90
2018-07-20T12:20:58.612Z,36.10
2018-07-20T12:23:27.812Z,35.60
2018-07-20T12:25:57.079Z,35.20
2018-07-20T12:28:26.623Z,34.00
2018-07-20T12:30:56.816Z,33.10
2018-07-20T12:33:26.120Z,33.20
2018-07-20T12:35:55.481Z,33.00
2018-07-20T12:38:25.161Z,32.20
2018-07-20T12:40:54.509Z,31.80
2018-07-20T12:43:23.925Z,31.50
2018-07-20T12:45:53.231Z,30.30
2018-07-20T12:48:22.719Z,30.00
2018-07-20T12:50:51.921Z,30.10
2018-07-20T12:53:21.362Z,30.10
2018-07-20T12:55:50.916Z,30.10
2018-07-20T12:58:20.440Z,30.60
2018-07-20T13:00:50.160Z,29.90
2018-07-20T13:03:19.549Z,29.80
2018-07-20T13:05:49.128Z,29.30
2018-07-20T13:08:18.691Z,28.90
2018-07-20T13:10:48.040Z,28.90
2018-07-20T13:13:17.494Z,28.40
2018-07-20T13:15:46.956Z,28.80
2018-07-20T13:20:45.155Z,29.80
2018-07-20T13:23:14.240Z,30.10
2018-07-20T13:25:43.625Z,31.20
2018-07-20T13:28:12.967Z,32.10
2018-07-20T13:30:42.687Z,31.90
2018-07-20T13:33:11.943Z,32.20
2018-07-20T13:35:41.591Z,32.70
2018-07-20T13:38:11.052Z,33.20
2018-07-20T13:40:40.785Z,32.10
2018-07-20T13:43:10.085Z,31.00
2018-07-20T13:45:39.398Z,30.50
2018-07-20T13:48:08.940Z,30.10
2018-07-20T13:50:38.408Z,29.50
2018-07-20T13:53:07.823Z,29.40
2018-07-20T13:55:37.063Z,28.90
2018-07-20T13:58:06.423Z,29.10
2018-07-20T14:00:35.731Z,28.60
2018-07-20T14:03:05.219Z,28.40
2018-07-20T14:05:34.618Z,27.80
2018-07-20T14:08:04.125Z,27.80
2018-07-20T14:10:33.410Z,27.20
2018-07-20T14:13:02.911Z,27.10
2018-07-20T14:15:32.123Z,26.50
2018-07-20T14:18:01.455Z,26.50
2018-07-20T14:23:00.117Z,26.00
2018-07-20T14:25:29.498Z,26.50
2018-07-20T14:27:58.796Z,26.20
2018-07-20T14:30:28.275Z,25.90
2018-07-20T14:32:57.498Z,25.90
2018-07-20T14:35:28.028Z,26.80
2018-07-20T14:37:57.076Z,26.80
2018-07-20T14:40:26.446Z,27.20
2018-07-20T14:42:55.730Z,27.70
2018-07-20T14:45:25.068Z,27.90
2018-07-20T14:47:54.413Z,28.30
2018-07-20T14:50:23.648Z,28.80
2018-07-20T14:52:53.240Z,29.00
2018-07-20T14:55:22.483Z,28.80
2018-07-20T14:57:51.754Z,29.00
2018-07-20T15:00:21.151Z,29.10
2018-07-20T15:02:50.663Z,29.50
2018-07-20T15:05:20.030Z,29.50
2018-07-20T15:07:49.088Z,29.80
2018-07-20T15:10:18.160Z,29.80
2018-07-20T15:12:47.340Z,30.00
2018-07-20T15:15:17.254Z,30.50
2018-07-20T15:17:46.551Z,30.50
2018-07-20T15:20:15.992Z,30.60
2018-07-20T15:22:45.246Z,30.30
2018-07-20T15:25:14.316Z,29.60
2018-07-20T15:27:43.308Z,28.90
2018-07-20T15:30:12.733Z,28.50
2018-07-20T15:32:41.870Z,28.40
2018-07-20T15:35:10.985Z,28.20
2018-07-20T15:37:40.088Z,28.30
2018-07-20T15:40:09.136Z,28.30
2018-07-20T15:42:38.535Z,28.30
2018-07-20T15:45:07.621Z,28.90
2018-07-20T15:47:36.651Z,29.80
2018-07-20T15:50:06.266Z,30.60
2018-07-20T15:55:04.730Z,32.30
2018-07-20T15:57:33.863Z,32.70
2018-07-20T16:00:03.310Z,33.30
2018-07-20T16:02:32.510Z,33.90
2018-07-20T16:05:01.811Z,33.50
2018-07-20T16:07:31.390Z,34.10
2018-07-20T16:10:00.533Z,34.40
2018-07-20T16:12:29.633Z,35.00
2018-07-20T16:14:59.041Z,35.40
2018-07-20T16:17:28.142Z,35.70
2018-07-20T16:19:57.296Z,35.40
2018-07-20T16:22:26.432Z,35.70
2018-07-20T16:24:55.505Z,36.10
2018-07-20T16:27:24.683Z,36.70
2018-07-20T16:29:54.297Z,36.90
2018-07-20T16:32:23.395Z,36.80
2018-07-20T16:34:52.489Z,38.10
2018-07-20T16:37:21.536Z,38.70
2018-07-20T16:39:50.811Z,39.70
2018-07-20T16:42:20.031Z,40.20
2018-07-20T16:44:49.662Z,41.00
2018-07-20T16:47:18.522Z,41.10
2018-07-20T16:49:47.768Z,41.40
2018-07-20T16:52:16.970Z,41.30
2018-07-20T16:54:46.020Z,41.80
2018-07-20T16:57:15.218Z,42.00
2018-07-20T16:59:44.312Z,41.30
2018-07-20T17:02:13.622Z,40.70
2018-07-20T17:04:42.936Z,40.80
2018-07-20T17:07:12.161Z,40.90
2018-07-20T17:09:41.549Z,47.70
2018-07-20T17:14:39.089Z,54.90
2018-07-20T17:17:08.163Z,59.10
2018-07-20T17:19:37.275Z,64.00
2018-07-20T17:22:06.521Z,67.00
2018-07-20T17:24:35.636Z,68.90
2018-07-20T17:27:05.215Z,71.10
2018-07-20T17:29:34.696Z,71.70
2018-07-20T17:32:04.317Z,73.00
2018-07-20T17:34:33.826Z,73.30
2018-07-20T17:37:03.650Z,72.30
2018-07-20T17:39:32.758Z,69.70
2018-07-20T17:42:01.850Z,70.00
2018-07-20T17:44:31.083Z,70.50
2018-07-20T17:47:00.429Z,69.90
2018-07-20T17:49:30.033Z,70.50
2018-07-20T17:51:59.122Z,70.40
2018-07-20T17:54:28.237Z,69.80
2018-07-20T17:56:57.243Z,69.70
2018-07-20T17:59:26.320Z,68.90
2018-07-20T18:01:55.327Z,67.60
2018-07-20T18:04:24.322Z,67.50
2018-07-20T18:06:53.350Z,68.10
2018-07-20T18:09:22.749Z,66.10
2018-07-20T18:11:51.758Z,66.20
2018-07-20T18:14:20.879Z,65.60
2018-07-20T18:19:18.616Z,66.40
2018-07-20T18:24:16.322Z,66.60
2018-07-20T18:26:45.388Z,65.70
2018-07-20T18:29:14.685Z,65.30
2018-07-20T18:31:43.687Z,65.50
2018-07-20T18:34:12.632Z,64.50
2018-07-20T18:36:41.673Z,64.50
2018-07-20T18:39:11.930Z,63.70
2018-07-20T18:41:41.612Z,63.20
2018-07-20T18:44:10.943Z,63.10
2018-07-20T18:46:39.881Z,62.40
2018-07-20T18:49:09.086Z,61.70
2018-07-20T18:51:38.043Z,61.60
2018-07-20T18:54:13.821Z,61.80
2018-07-20T18:56:42.687Z,61.50
2018-07-20T18:59:11.605Z,61.40
2018-07-20T19:01:41.357Z,61.40
2018-07-20T19:04:11.360Z,61.80
2018-07-20T19:06:40.421Z,61.20
2018-07-20T19:09:11.050Z,60.80
2018-07-20T19:11:40.276Z,61.40
2018-07-20T19:14:09.280Z,61.50
2018-07-20T19:16:38.269Z,61.70
2018-07-20T19:19:07.954Z,61.90
2018-07-20T19:21:37.072Z,62.70
2018-07-20T19:24:06.669Z,62.30
2018-07-20T19:26:35.633Z,63.50
2018-07-20T19:29:04.684Z,65.90
2018-07-20T19:31:33.625Z,66.30
2018-07-20T19:34:02.770Z,66.50
2018-07-20T19:36:31.664Z,68.00
2018-07-20T19:39:00.507Z,68.90
2018-07-20T19:41:29.394Z,69.10
2018-07-20T19:43:58.513Z,69.20
2018-07-20T19:46:27.652Z,69.50
2018-07-20T19:48:56.514Z,69.80
2018-07-20T19:51:25.711Z,69.40
2018-07-20T19:53:54.558Z,69.50
2018-07-20T19:56:23.506Z,69.80
2018-07-20T19:58:52.546Z,70.00
2018-07-20T20:01:27.796Z,70.20
2018-07-20T20:03:56.764Z,70.60
2018-07-20T20:06:25.665Z,70.90
2018-07-20T20:08:54.498Z,71.10
2018-07-20T20:11:23.459Z,71.10
2018-07-20T20:13:52.599Z,71.30
2018-07-20T20:16:21.498Z,71.50
2018-07-20T20:18:50.423Z,71.60
2018-07-20T20:21:19.428Z,71.40
2018-07-20T20:23:48.508Z,72.10
2018-07-20T20:26:17.399Z,72.50
2018-07-20T20:28:46.277Z,72.70
2018-07-20T20:31:15.424Z,72.70
2018-07-20T20:33:44.279Z,72.90
2018-07-20T20:36:13.168Z,73.40
2018-07-20T20:38:42.038Z,73.90
2018-07-20T20:41:10.977Z,74.10
2018-07-20T20:43:39.898Z,74.30
2018-07-20T20:46:08.965Z,74.50
2018-07-20T20:48:37.892Z,74.70
2018-07-20T20:51:06.777Z,75.20
2018-07-20T20:53:35.655Z,75.10
2018-07-20T20:56:04.816Z,75.40
2018-07-20T20:58:33.795Z,75.80
2018-07-20T21:01:03.160Z,76.50
2018-07-20T21:03:32.074Z,76.90
2018-07-20T21:06:00.986Z,76.60
2018-07-20T21:08:29.986Z,76.40
2018-07-20T21:10:58.844Z,76.40
2018-07-20T21:13:28.002Z,76.70
2018-07-20T21:15:56.908Z,77.10
2018-07-20T21:18:25.803Z,75.50
2018-07-20T21:20:54.687Z,75.60
2018-07-20T21:23:23.725Z,75.20
2018-07-20T21:25:53.064Z,76.00
2018-07-20T21:30:50.470Z,76.30
2018-07-20T21:33:19.338Z,77.10
2018-07-20T21:35:48.238Z,76.60
2018-07-20T21:38:17.230Z,76.10
2018-07-20T21:40:46.120Z,76.10
2018-07-20T21:43:14.970Z,76.00
2018-07-20T21:45:43.868Z,76.50
2018-07-20T21:48:12.819Z,76.90
2018-07-20T21:50:42.024Z,76.80
2018-07-20T21:53:10.999Z,76.20
2018-07-20T21:55:39.974Z,75.70
2018-07-20T21:58:08.911Z,75.40
2018-07-20T22:00:37.886Z,75.40
2018-07-20T22:03:07.006Z,74.10
2018-07-20T22:05:36.253Z,74.90
2018-07-20T22:08:05.351Z,74.10
2018-07-20T22:10:34.211Z,73.60
2018-07-20T22:13:03.098Z,74.00
2018-07-20T22:15:31.954Z,72.90
2018-07-20T22:18:00.876Z,72.70
2018-07-20T22:20:29.800Z,72.70
2018-07-20T22:22:58.671Z,72.70
2018-07-20T22:25:27.623Z,72.20
2018-07-20T22:27:56.505Z,72.20
2018-07-20T22:30:25.518Z,72.20
2018-07-20T22:32:54.395Z,71.60
2018-07-20T22:35:23.245Z,71.10
2018-07-20T22:37:52.200Z,71.00
2018-07-20T22:40:21.190Z,70.90
2018-07-20T22:42:50.118Z,70.40
2018-07-20T22:45:19.019Z,70.20
2018-07-20T22:47:48.068Z,69.80
2018-07-20T22:50:16.942Z,69.60
2018-07-20T22:52:45.831Z,68.80
2018-07-20T22:55:14.679Z,68.70
2018-07-20T22:57:43.696Z,68.50
2018-07-20T23:00:12.726Z,68.10
2018-07-20T23:05:10.383Z,67.30
2018-07-20T23:07:39.230Z,67.30
2018-07-20T23:10:08.083Z,66.60
2018-07-20T23:12:37.127Z,66.20
2018-07-20T23:15:06.437Z,66.30
2018-07-20T23:17:36.548Z,65.30
2018-07-20T23:20:05.658Z,65.20
2018-07-20T23:22:34.774Z,65.40
2018-07-20T23:25:03.655Z,65.60
2018-07-20T23:27:32.524Z,65.40
2018-07-20T23:32:30.733Z,64.90
2018-07-20T23:35:00.236Z,64.90
2018-07-20T23:37:29.872Z,64.80
2018-07-20T23:39:59.028Z,65.00
2018-07-20T23:42:28.355Z,64.90
2018-07-20T23:44:57.645Z,64.70
2018-07-20T23:47:27.317Z,64.40
2018-07-20T23:49:56.470Z,64.90
2018-07-20T23:52:25.815Z,65.20
2018-07-20T23:54:55.347Z,64.30
2018-07-20T23:57:24.591Z,64.20
2018-07-20T23:59:54.154Z,64.30
